Axtell, UT (84621)

1:54 AM MDT on July 31, 2016 (GMT -0600)
Salina-Northeast Fields | | Change Station

Elev 5174 ft 39.00 °N, 111.83 °W | Updated 8 minutes ago

Clear
Clear
63.3 °F
Feels Like 63.3 °F
N
0.0
Wind Variable Wind from East
Gusts 3.0 mph

Today
High -- | Low -- °F
--% Chance of Precip.
Yesterday
High -- | Low -- °F
Precip. -- in
Pressure 29.73 in
Visibility 10.0 miles
Clouds Clear
Dew Point 56 °F
Humidity 78%
Rainfall 0.00 in
Snow Depth Not available.
6:27 AM 8:39 PM
Waning Crescent, 8% visible
METAR KPUC 310653Z AUTO 26003KT 10SM CLR 24/07 A3005 RMK AO2 WSHFT 0613 SLP068 T02390067 403390206
Pressure 29.73 in
Visibility 10.0 miles
Clouds Clear
Dew Point 56 °F
Humidity 78%
Rainfall 0.00 in
Snow Depth Not available.
6:27 AM 8:39 PM
Waning Crescent, 8% visible
METAR KPUC 310653Z AUTO 26003KT 10SM CLR 24/07 A3005 RMK AO2 WSHFT 0613 SLP068 T02390067 403390206

10-Day Weather Forecast

Almanac

Astronomy

Jul. 31, 2016 Rise Set
Actual Time
Civil Twilight
Nautical Twilight
Astronomical Twilight
Moon
Length of Visible Light
Length of Day
Tomorrow will be .
, % of the Moon is Illuminated

Today's Extremes

State Highs State Lows

Community

WunderPhotos

Upload Photos

1,928,768 photos uploaded!

WunderBlog® & News

Nearby

Air Quality

  Air Quality AQ Index Pollutant
Not available.

Snow Depth

Station Depth Elevation

Earthquake Activity

City Distance Mag. Time & Date
Minimum magnitude displayed is 2.5.

Coastal Water Temperatures

Place Temperature

Stations

Nearby Weather Stations

Station Location Temp. Windchill Dew Point Humidity Wind Precip. Elev Updated Type
                   

Watches & Warnings

Fire Weather Warning
Issued: 2:33 PM MDT Jul. 30, 2016 – National Weather Service

... Red flag warning now in effect until 10 PM MDT Sunday for dry
thunderstorms and gusty outflow winds for fire weather zones
478 and 492...

* affected area... fire weather zone 478 Salt Lake desert and
fire weather zone 492 central Utah west desert.

* Thunderstorms... scattered thunderstorms with numerous lightning
strikes through this evening. Thunderstorms will redevelop
tomorrow afternoon and persist through tomorrow evening.

* Outflow winds... gusty and erratic winds in excess of 40 mph
will be possible with any storms that develop.

* Impacts... the threat of lightning and gusty winds in addition to
very dry conditions will bring the potential of multiple new
fire starts.

Precautionary/preparedness actions...

A red flag warning means that critical fire weather conditions
are either occurring now... or will shortly. A combination of
strong winds... low relative humidity... and warm temperatures can
contribute to extreme fire behavior.



Rogowski